Terminal Aerodrome Forecast
Issued by NWS

Home | Current Version | Previous Version | Text Only | Print | Product List | Glossary On
Versions: 1 2 3 4 5 6 7 8 9 10 11 12 13 14 15 16 17 18 19 20 21 22 23 24 25 26 27
000
FTUS46 KLOX 250038 AAA
TAFLGB
TAF AMD
KLGB 250038Z 2501/2524 25010KT P6SM BKN200
     FM250400 VRB03KT P6SM BKN150
     FM251000 VRB03KT P6SM VCSH BKN070
     FM251400 VRB03KT P6SM VCSH BKN025 OVC050
     FM251700 25012KT P6SM BKN025
     FM252100 26014G22KT P6SM SCT025 BKN040=

USA.gov is the U.S. government's official web portal to all federal, state and local government web resources and services.